Time;durP1;ratioP1;P1;durP2;ratioP2;P2;SDS_P1;SDS_P2;PMS_P1;PMS_P2;Temp;Humidity;BMP_temperature;BMP_pressure;BME280_temperature;BME280_humidity;BME280_pressure;Samples;Min_cycle;Max_cycle;Signal;HPM_P1;HPM_P2
2021/12/14 09:11:45;;;;;;;;;;;19.40;53.90;;;;;;5151202;27;19957;-64
2021/12/14 09:14:13;;;;;;;;;;;19.40;55.50;;;;;;5151107;27;20333;-65
2021/12/14 09:16:40;;;;;;;;;;;19.60;56.60;;;;;;5151112;27;20397;-63
2021/12/14 09:19:13;;;;;;;;;;;19.70;57.10;;;;;;5151206;27;19968;-64
2021/12/14 09:21:40;;;;;;;;;;;19.90;57.30;;;;;;5150328;27;19907;-64
2021/12/14 09:24:08;;;;;;;;;;;20.10;57.50;;;;;;5147281;27;20386;-63
2021/12/14 09:26:35;;;;;;;;;;;20.20;57.50;;;;;;5148341;27;19912;-64
2021/12/14 09:29:04;;;;;;;;;;;20.40;57.50;;;;;;5148099;27;19915;-63
2021/12/14 09:31:32;;;;;;;;;;;20.50;57.50;;;;;;5147965;27;19924;-61
2021/12/14 09:33:59;;;;;;;;;;;20.60;57.40;;;;;;5147973;27;19950;-65
2021/12/14 09:36:26;;;;;;;;;;;20.70;57.40;;;;;;5147466;27;19912;-65
2021/12/14 09:38:54;;;;;;;;;;;20.80;57.30;;;;;;5148012;27;20374;-65
2021/12/14 09:41:22;;;;;;;;;;;20.90;57.30;;;;;;5147746;27;19918;-65
2021/12/14 09:43:48;;;;;;;;;;;21.00;57.30;;;;;;5147760;27;20323;-65
2021/12/14 09:46:15;;;;;;;;;;;21.00;57.20;;;;;;5148023;27;19912;-65
2021/12/14 09:48:42;;;;;;;;;;;21.10;57.20;;;;;;5147331;27;19981;-65
2021/12/14 09:51:13;;;;;;;;;;;21.10;57.10;;;;;;5147110;27;19920;-66
2021/12/14 09:53:45;;;;;;;;;;;21.20;57.00;;;;;;5147548;27;19924;-66
2021/12/14 09:56:12;;;;;;;;;;;21.20;57.00;;;;;;5147580;27;20350;-63
2021/12/14 09:58:42;;;;;;;;;;;21.30;57.00;;;;;;5147589;27;19984;-67
2021/12/14 10:01:14;;;;;;;;;;;21.30;56.90;;;;;;5147114;27;19913;-64
2021/12/14 10:03:40;;;;;;;;;;;21.40;56.90;;;;;;5147579;27;20241;-69
2021/12/14 10:06:08;;;;;;;;;;;21.40;56.80;;;;;;5147294;27;20367;-66
2021/12/14 10:08:37;;;;;;;;;;;21.40;56.70;;;;;;5147939;27;19922;-67
2021/12/14 10:11:09;;;;;;;;;;;21.40;56.70;;;;;;5147610;27;20321;-66
2021/12/14 10:13:35;;;;;;;;;;;21.50;56.70;;;;;;5147207;27;19911;-66
2021/12/14 10:16:02;;;;;;;;;;;21.50;56.60;;;;;;5147318;27;19915;-65
2021/12/14 10:18:30;;;;;;;;;;;21.50;56.50;;;;;;5147184;27;19977;-67
2021/12/14 10:20:57;;;;;;;;;;;21.60;56.50;;;;;;5145674;27;19911;-66
2021/12/14 10:23:24;;;;;;;;;;;21.60;56.50;;;;;;5132621;27;20025;-65
2021/12/14 10:25:50;;;;;;;;;;;21.60;56.40;;;;;;5128530;27;19911;-66
2021/12/14 10:28:16;;;;;;;;;;;21.60;56.30;;;;;;5115637;27;19908;-64
2021/12/14 10:30:46;;;;;;;;;;;21.60;56.30;;;;;;5113397;28;19930;-66
2021/12/14 10:33:12;;;;;;;;;;;21.60;56.30;;;;;;5114432;28;20032;-66
2021/12/14 10:35:44;;;;;;;;;;;21.60;56.20;;;;;;5114481;28;19986;-66
2021/12/14 10:38:18;;;;;;;;;;;21.60;56.20;;;;;;5115183;28;19911;-66
2021/12/14 10:43:31;;;;;;;;;;;21.70;56.10;;;;;;5115363;28;19964;-66
2021/12/14 10:45:58;;;;;;;;;;;21.70;56.10;;;;;;5114874;28;19994;-66
2021/12/14 10:48:26;;;;;;;;;;;21.70;56.10;;;;;;5114108;28;20261;-66
2021/12/14 10:50:53;;;;;;;;;;;21.70;56.00;;;;;;5114827;28;19915;-66
2021/12/14 10:53:20;;;;;;;;;;;21.70;56.00;;;;;;5114733;28;19912;-65
2021/12/14 10:55:50;;;;;;;;;;;21.80;56.00;;;;;;5114790;28;19915;-65
2021/12/14 10:58:17;;;;;;;;;;;21.80;56.00;;;;;;5114699;28;20261;-65
2021/12/14 11:00:47;;;;;;;;;;;21.80;55.90;;;;;;5114553;28;20278;-64
2021/12/14 11:03:20;;;;;;;;;;;21.80;55.90;;;;;;5114235;28;19908;-66
2021/12/14 11:05:48;;;;;;;;;;;21.80;55.90;;;;;;5114585;28;19960;-66
2021/12/14 11:08:33;;;;;;;;;;;21.80;55.90;;;;;;5114875;28;20100;-65
2021/12/14 11:11:00;;;;;;;;;;;21.80;55.80;;;;;;5114322;28;20324;-65
2021/12/14 11:13:26;;;;;;;;;;;21.80;55.80;;;;;;5114375;28;19914;-66
2021/12/14 11:15:54;;;;;;;;;;;21.80;55.80;;;;;;5114327;28;19911;-66
2021/12/14 11:18:21;;;;;;;;;;;21.80;55.80;;;;;;5114053;28;20027;-65
2021/12/14 11:20:52;;;;;;;;;;;21.80;55.80;;;;;;5114614;28;20481;-66
2021/12/14 11:23:19;;;;;;;;;;;21.80;55.70;;;;;;5113357;28;19912;-65
2021/12/14 11:25:51;;;;;;;;;;;21.80;55.70;;;;;;5114268;28;19930;-66
2021/12/14 11:28:21;;;;;;;;;;;21.80;55.70;;;;;;5114108;28;19920;-64
2021/12/14 11:30:49;;;;;;;;;;;21.80;55.70;;;;;;5114052;28;19908;-66
2021/12/14 11:33:19;;;;;;;;;;;21.80;55.60;;;;;;5112498;28;20397;-66
2021/12/14 11:35:50;;;;;;;;;;;21.70;55.60;;;;;;5113985;28;19912;-67
2021/12/14 11:38:35;;;;;;;;;;;21.80;55.60;;;;;;5114011;28;19956;-64
2021/12/14 11:41:04;;;;;;;;;;;21.80;55.50;;;;;;5112461;28;19996;-64
2021/12/14 11:43:30;;;;;;;;;;;21.80;55.50;;;;;;5112425;28;20264;-64
2021/12/14 11:45:56;;;;;;;;;;;21.80;55.50;;;;;;5113634;28;19908;-62
2021/12/14 11:48:30;;;;;;;;;;;21.80;55.50;;;;;;5129382;27;19933;-65
2021/12/14 11:50:56;;;;;;;;;;;21.80;55.50;;;;;;5134087;27;19918;-62
2021/12/14 11:53:22;;;;;;;;;;;21.80;55.40;;;;;;5134404;27;19908;-68
2021/12/14 11:55:53;;;;;;;;;;;21.90;55.50;;;;;;5134462;27;19907;-64
2021/12/14 11:58:30;;;;;;;;;;;21.90;55.50;;;;;;5134150;27;19907;-63
2021/12/14 12:01:10;;;;;;;;;;;21.90;55.40;;;;;;5133595;27;19979;-62
2021/12/14 12:03:38;;;;;;;;;;;21.90;55.40;;;;;;5134104;27;20316;-62
2021/12/14 12:06:33;;;;;;;;;;;21.90;55.40;;;;;;5120907;27;19923;-62
2021/12/14 12:11:46;;;;;;;;;;;21.90;55.40;;;;;;5113675;28;19926;-60
2021/12/14 12:14:23;;;;;;;;;;;21.90;55.40;;;;;;5113234;28;19915;-64
2021/12/14 12:16:49;;;;;;;;;;;21.90;55.40;;;;;;5112751;28;19975;-64
2021/12/14 12:19:19;;;;;;;;;;;22.00;55.40;;;;;;5113113;28;19911;-65
2021/12/14 12:21:46;;;;;;;;;;;21.90;55.40;;;;;;5113244;28;19924;-63
2021/12/14 12:24:30;;;;;;;;;;;22.00;55.40;;;;;;5113009;28;19954;-63
2021/12/14 12:27:14;;;;;;;;;;;22.00;55.40;;;;;;5113058;28;20112;-60
2021/12/14 12:29:40;;;;;;;;;;;22.00;55.40;;;;;;5112429;28;19915;-61
2021/12/14 12:32:16;;;;;;;;;;;22.00;55.40;;;;;;5112997;28;20089;-59
2021/12/14 12:34:43;;;;;;;;;;;22.00;55.40;;;;;;5107216;27;19912;-59
2021/12/14 12:37:11;;;;;;;;;;;22.00;55.40;;;;;;5117604;27;19908;-63
2021/12/14 12:39:37;;;;;;;;;;;22.00;55.40;;;;;;5112604;28;19912;-62
2021/12/14 12:42:04;;;;;;;;;;;22.00;55.40;;;;;;5128499;27;19994;-62
2021/12/14 12:44:29;;;;;;;;;;;22.00;55.40;;;;;;5119729;27;19915;-62
2021/12/14 12:46:57;;;;;;;;;;;22.00;55.30;;;;;;5112837;28;19908;-62
2021/12/14 12:49:25;;;;;;;;;;;22.00;55.40;;;;;;5112380;28;19912;-61
2021/12/14 12:51:50;;;;;;;;;;;22.00;55.30;;;;;;5112398;28;20402;-61
2021/12/14 12:54:16;;;;;;;;;;;22.00;55.30;;;;;;5112456;28;19966;-61
2021/12/14 12:56:42;;;;;;;;;;;22.00;55.30;;;;;;5117825;27;19908;-63
2021/12/14 12:59:09;;;;;;;;;;;22.10;55.30;;;;;;5132465;27;20374;-62
2021/12/14 13:01:35;;;;;;;;;;;22.00;55.20;;;;;;5132979;27;20431;-63
2021/12/14 13:04:01;;;;;;;;;;;22.00;55.20;;;;;;5126576;27;19912;-62
2021/12/14 13:06:26;;;;;;;;;;;22.00;55.20;;;;;;5112368;28;20261;-61
2021/12/14 13:08:55;;;;;;;;;;;22.10;55.30;;;;;;5112330;28;20017;-63
2021/12/14 13:11:25;;;;;;;;;;;22.10;55.20;;;;;;5112164;28;19965;-62
2021/12/14 13:13:53;;;;;;;;;;;22.10;55.10;;;;;;5111886;28;19947;-63
2021/12/14 13:16:23;;;;;;;;;;;22.00;55.10;;;;;;5112505;28;19961;-61
2021/12/14 13:19:10;;;;;;;;;;;22.10;55.10;;;;;;5112326;28;20014;-61
2021/12/14 13:21:38;;;;;;;;;;;22.00;55.10;;;;;;5112141;28;19915;-63
2021/12/14 13:24:18;;;;;;;;;;;22.00;55.00;;;;;;5112240;28;19908;-63
2021/12/14 13:26:51;;;;;;;;;;;22.00;55.00;;;;;;5112360;28;19908;-62
2021/12/14 13:29:43;;;;;;;;;;;22.00;54.90;;;;;;5111664;28;19912;-61
2021/12/14 13:32:09;;;;;;;;;;;22.10;55.50;;;;;;5105087;28;19918;-64
2021/12/14 13:34:37;;;;;;;;;;;22.10;54.80;;;;;;5112111;28;19995;-62
2021/12/14 13:37:03;;;;;;;;;;;22.00;55.40;;;;;;5112161;28;19973;-64
2021/12/14 13:39:29;;;;;;;;;;;22.10;54.80;;;;;;5122440;28;20048;-61
2021/12/14 13:42:07;;;;;;;;;;;22.00;54.70;;;;;;5132549;28;20325;-61
2021/12/14 13:44:39;;;;;;;;;;;22.00;54.70;;;;;;5119968;28;19912;-63
2021/12/14 13:47:07;;;;;;;;;;;22.00;54.70;;;;;;5111894;28;19908;-62
2021/12/14 13:49:32;;;;;;;;;;;22.00;54.70;;;;;;5111871;28;19916;-62
2021/12/14 13:51:58;;;;;;;;;;;22.00;54.60;;;;;;5112169;28;19915;-61
2021/12/14 13:54:24;;;;;;;;;;;22.00;54.60;;;;;;5112274;28;20371;-63
2021/12/14 13:56:50;;;;;;;;;;;22.00;54.60;;;;;;5111841;27;19961;-61
2021/12/14 13:59:16;;;;;;;;;;;22.00;54.60;;;;;;5115651;28;19915;-60
2021/12/14 14:01:46;;;;;;;;;;;22.00;54.60;;;;;;5115517;28;19916;-61
2021/12/14 14:04:13;;;;;;;;;;;22.00;54.50;;;;;;5115662;28;20393;-61
2021/12/14 14:06:38;;;;;;;;;;;22.00;54.50;;;;;;5115691;28;19912;-62
2021/12/14 14:09:09;;;;;;;;;;;22.00;54.50;;;;;;5116084;28;20044;-62
2021/12/14 14:11:37;;;;;;;;;;;22.10;54.50;;;;;;5113365;28;20095;-62
2021/12/14 14:14:07;;;;;;;;;;;22.10;54.50;;;;;;5115441;28;19908;-62
2021/12/14 14:16:49;;;;;;;;;;;22.10;54.50;;;;;;5115356;27;19911;-62
2021/12/14 14:19:15;;;;;;;;;;;22.10;54.50;;;;;;5115512;28;20053;-62
2021/12/14 14:21:47;;;;;;;;;;;22.10;54.50;;;;;;5123851;27;20368;-62
2021/12/14 14:24:17;;;;;;;;;;;22.10;54.50;;;;;;5135845;27;20305;-61
2021/12/14 14:26:42;;;;;;;;;;;22.10;54.40;;;;;;5135262;27;19907;-61
2021/12/14 14:29:12;;;;;;;;;;;22.10;54.40;;;;;;5135681;27;19960;-61
2021/12/14 14:31:47;;;;;;;;;;;22.10;54.40;;;;;;5135548;27;19907;-60
2021/12/14 14:34:18;;;;;;;;;;;22.10;54.40;;;;;;5135837;27;19911;-60
2021/12/14 14:36:45;;;;;;;;;;;22.10;54.30;;;;;;5135558;27;19947;-62
2021/12/14 14:39:15;;;;;;;;;;;22.10;54.30;;;;;;5134150;27;19907;-60
2021/12/14 14:41:51;;;;;;;;;;;22.10;54.30;;;;;;5132403;27;19958;-61
2021/12/14 14:44:21;;;;;;;;;;;22.10;54.20;;;;;;5114625;28;19911;-62
2021/12/14 14:46:54;;;;;;;;;;;22.10;54.20;;;;;;5126033;27;19953;-60
2021/12/14 14:49:22;;;;;;;;;;;22.10;54.20;;;;;;5132618;27;19915;-61
2021/12/14 14:51:47;;;;;;;;;;;22.10;54.20;;;;;;5132420;27;19974;-61
2021/12/14 14:54:28;;;;;;;;;;;22.10;54.20;;;;;;5131395;27;19942;-61
2021/12/14 14:56:53;;;;;;;;;;;22.10;54.20;;;;;;5131878;27;19912;-61
2021/12/14 14:59:19;;;;;;;;;;;22.10;54.10;;;;;;5132369;27;19998;-62
2021/12/14 15:01:44;;;;;;;;;;;22.10;54.10;;;;;;5132165;27;20159;-62
2021/12/14 15:04:10;;;;;;;;;;;22.10;54.10;;;;;;5132537;27;20007;-61
2021/12/14 15:06:36;;;;;;;;;;;22.10;54.10;;;;;;5132294;27;19916;-62
2021/12/14 15:09:07;;;;;;;;;;;22.10;54.10;;;;;;5131728;27;20476;-61
2021/12/14 15:11:42;;;;;;;;;;;22.10;54.10;;;;;;5132120;27;19926;-61
2021/12/14 15:14:12;;;;;;;;;;;22.10;54.10;;;;;;5132434;27;19908;-60
2021/12/14 15:16:40;;;;;;;;;;;22.10;54.10;;;;;;5130800;27;20420;-62
2021/12/14 15:19:06;;;;;;;;;;;22.10;54.00;;;;;;5119619;27;19916;-63
2021/12/14 15:21:31;;;;;;;;;;;22.10;54.00;;;;;;5114930;27;20002;-64
2021/12/14 15:24:16;;;;;;;;;;;22.10;54.00;;;;;;5111941;28;20206;-63
2021/12/14 15:26:42;;;;;;;;;;;22.10;54.00;;;;;;5114223;28;19914;-62
2021/12/14 15:29:27;;;;;;;;;;;22.10;54.00;;;;;;5114072;28;20002;-61
2021/12/14 15:32:11;;;;;;;;;;;22.10;54.00;;;;;;5113979;28;19918;-62
2021/12/14 15:34:57;;;;;;;;;;;22.10;54.00;;;;;;5131568;27;20455;-63
2021/12/14 15:37:41;;;;;;;;;;;22.10;53.90;;;;;;5134742;27;20415;-61
2021/12/14 15:40:15;;;;;;;;;;;22.10;53.90;;;;;;5134477;27;19972;-64
2021/12/14 15:42:43;;;;;;;;;;;22.10;53.90;;;;;;5135113;27;19980;-61
2021/12/14 15:45:10;;;;;;;;;;;22.20;54.50;;;;;;5134124;27;19918;-62
2021/12/14 15:47:54;;;;;;;;;;;22.10;53.80;;;;;;5133971;27;19957;-61
2021/12/14 15:50:21;;;;;;;;;;;22.20;53.90;;;;;;5134213;27;20405;-63
2021/12/14 15:53:06;;;;;;;;;;;22.10;53.80;;;;;;5133628;27;19995;-61
2021/12/14 15:55:32;;;;;;;;;;;22.20;53.80;;;;;;5133927;27;19908;-63
2021/12/14 15:57:57;;;;;;;;;;;22.20;53.80;;;;;;5133992;27;19931;-62
2021/12/14 16:00:23;;;;;;;;;;;22.10;53.80;;;;;;5133830;27;19919;-62
2021/12/14 16:02:48;;;;;;;;;;;22.20;53.80;;;;;;5133858;27;19952;-62
2021/12/14 16:05:15;;;;;;;;;;;22.10;53.80;;;;;;5134046;27;19919;-64
2021/12/14 16:07:41;;;;;;;;;;;22.10;53.90;;;;;;5133064;27;19972;-62
2021/12/14 16:10:19;;;;;;;;;;;22.20;54.00;;;;;;5133493;27;20349;-64
2021/12/14 16:15:33;;;;;;;;;;;22.20;54.00;;;;;;5133973;27;19946;-63
2021/12/14 16:18:00;;;;;;;;;;;22.20;54.00;;;;;;5115159;27;19911;-63
2021/12/14 16:20:26;;;;;;;;;;;22.20;54.10;;;;;;5132846;27;19916;-63
2021/12/14 16:22:52;;;;;;;;;;;22.20;54.10;;;;;;5132909;27;19911;-65
2021/12/14 16:25:17;;;;;;;;;;;22.20;54.10;;;;;;5133414;27;19908;-62
2021/12/14 16:27:46;;;;;;;;;;;22.30;54.20;;;;;;5133604;27;19953;-71
2021/12/14 16:30:34;;;;;;;;;;;22.30;54.20;;;;;;5134465;27;19914;-67
2021/12/14 16:33:12;;;;;;;;;;;22.30;54.30;;;;;;5124727;27;20253;-62
2021/12/14 16:35:40;;;;;;;;;;;22.30;54.30;;;;;;5133346;27;19963;-61
2021/12/14 16:38:07;;;;;;;;;;;22.30;54.40;;;;;;5132317;27;19911;-59
2021/12/14 16:40:36;;;;;;;;;;;22.40;54.50;;;;;;5133092;27;19915;-64
2021/12/14 16:43:02;;;;;;;;;;;22.40;54.60;;;;;;5131726;27;20024;-63
2021/12/14 16:45:28;;;;;;;;;;;22.40;54.60;;;;;;5112681;28;19911;-64
2021/12/14 16:47:53;;;;;;;;;;;22.40;54.70;;;;;;5112511;28;19919;-63
2021/12/14 16:50:24;;;;;;;;;;;22.50;54.80;;;;;;5112763;28;19919;-62
2021/12/14 16:52:51;;;;;;;;;;;22.50;54.80;;;;;;5111984;28;19908;-64
2021/12/14 16:55:28;;;;;;;;;;;22.50;54.90;;;;;;5111203;28;19974;-63
2021/12/14 16:57:55;;;;;;;;;;;22.60;55.00;;;;;;5111183;28;19947;-62
2021/12/14 17:00:22;;;;;;;;;;;22.60;55.00;;;;;;5112369;28;19916;-62
2021/12/14 17:02:48;;;;;;;;;;;22.60;55.00;;;;;;5112489;28;19907;-60
2021/12/14 17:05:17;;;;;;;;;;;22.60;55.00;;;;;;5112016;28;20007;-63
2021/12/14 17:07:43;;;;;;;;;;;22.70;55.10;;;;;;5112588;28;19947;-64
2021/12/14 17:10:14;;;;;;;;;;;22.70;55.10;;;;;;5112235;28;19920;-61
2021/12/14 17:12:41;;;;;;;;;;;22.70;55.10;;;;;;5112631;28;19955;-62
2021/12/14 17:15:07;;;;;;;;;;;22.70;55.10;;;;;;5112838;28;20274;-62
2021/12/14 17:17:32;;;;;;;;;;;22.70;55.10;;;;;;5112419;28;19908;-63
2021/12/14 17:20:04;;;;;;;;;;;22.70;55.10;;;;;;5111874;28;19992;-62
2021/12/14 17:22:33;;;;;;;;;;;22.70;55.20;;;;;;5112307;28;19922;-62
2021/12/14 17:25:01;;;;;;;;;;;22.70;55.20;;;;;;5109979;28;19918;-62
2021/12/14 17:27:28;;;;;;;;;;;22.70;55.20;;;;;;5114740;27;19919;-61
2021/12/14 17:29:57;;;;;;;;;;;22.70;55.20;;;;;;5111690;28;20275;-61
2021/12/14 17:32:24;;;;;;;;;;;22.70;55.20;;;;;;5114197;28;20280;-62
2021/12/14 17:34:50;;;;;;;;;;;22.80;55.20;;;;;;5115867;28;19955;-62
2021/12/14 17:37:21;;;;;;;;;;;22.80;55.20;;;;;;5116053;28;20378;-62
2021/12/14 17:39:49;;;;;;;;;;;22.70;55.10;;;;;;5116038;28;19908;-63
2021/12/14 17:42:17;;;;;;;;;;;22.70;55.10;;;;;;5116188;28;20011;-61
2021/12/14 17:44:43;;;;;;;;;;;22.80;55.20;;;;;;5116234;28;19908;-61
2021/12/14 17:47:15;;;;;;;;;;;22.80;55.10;;;;;;5115760;28;19931;-62
2021/12/14 17:49:42;;;;;;;;;;;22.80;55.80;;;;;;5122139;27;19911;-63
2021/12/14 17:52:10;;;;;;;;;;;22.80;55.10;;;;;;5136406;27;19919;-61
2021/12/14 17:54:47;;;;;;;;;;;22.80;55.10;;;;;;5136364;27;19959;-62
2021/12/14 17:57:17;;;;;;;;;;;22.80;55.10;;;;;;5134586;27;19908;-62
2021/12/14 17:59:45;;;;;;;;;;;22.80;55.10;;;;;;5136222;27;20006;-62
2021/12/14 18:02:11;;;;;;;;;;;22.80;55.10;;;;;;5136295;27;19965;-62
2021/12/14 18:04:37;;;;;;;;;;;22.80;55.10;;;;;;5135791;27;19958;-61
2021/12/14 18:07:04;;;;;;;;;;;22.80;55.10;;;;;;5136339;27;19915;-63
2021/12/14 18:09:30;;;;;;;;;;;22.80;55.10;;;;;;5136111;27;19911;-62
2021/12/14 18:11:55;;;;;;;;;;;22.80;55.10;;;;;;5136212;27;20373;-64
2021/12/14 18:14:26;;;;;;;;;;;22.80;55.00;;;;;;5136122;27;19907;-63
2021/12/14 18:16:57;;;;;;;;;;;22.80;55.00;;;;;;5136035;27;19908;-64
2021/12/14 18:19:25;;;;;;;;;;;22.70;55.60;;;;;;5135666;27;19907;-64
2021/12/14 18:21:53;;;;;;;;;;;22.80;55.00;;;;;;5130648;27;19923;-65
2021/12/14 18:24:26;;;;;;;;;;;22.70;54.90;;;;;;5133120;27;20040;-64
2021/12/14 18:26:54;;;;;;;;;;;22.80;54.90;;;;;;5133156;27;19911;-64
2021/12/14 18:29:21;;;;;;;;;;;22.80;55.00;;;;;;5133063;27;19912;-64
2021/12/14 18:31:51;;;;;;;;;;;22.70;54.90;;;;;;5132943;27;19918;-64
2021/12/14 18:34:17;;;;;;;;;;;22.70;54.80;;;;;;5132866;27;19915;-64
2021/12/14 18:36:50;;;;;;;;;;;22.70;54.80;;;;;;5132740;27;19919;-63
2021/12/14 18:39:23;;;;;;;;;;;22.80;54.80;;;;;;5132905;27;19923;-64
2021/12/14 18:41:50;;;;;;;;;;;22.70;54.80;;;;;;5130974;27;20411;-64
2021/12/14 18:44:20;;;;;;;;;;;22.80;54.80;;;;;;5131336;27;19960;-65
2021/12/14 18:47:03;;;;;;;;;;;22.80;54.80;;;;;;5132194;27;19918;-65
2021/12/14 18:49:43;;;;;;;;;;;22.70;54.70;;;;;;5132881;27;20076;-65
2021/12/14 18:52:11;;;;;;;;;;;22.70;54.70;;;;;;5132867;27;20392;-66
2021/12/14 18:54:37;;;;;;;;;;;22.70;54.70;;;;;;5132609;27;19995;-65
2021/12/14 18:57:04;;;;;;;;;;;22.70;54.60;;;;;;5132343;27;19912;-65
2021/12/14 18:59:29;;;;;;;;;;;22.70;54.60;;;;;;5132618;27;19914;-64
2021/12/14 19:01:58;;;;;;;;;;;22.70;54.60;;;;;;5131947;27;19919;-64
2021/12/14 19:04:33;;;;;;;;;;;22.70;54.60;;;;;;5132383;27;20253;-66
2021/12/14 19:06:59;;;;;;;;;;;22.70;54.60;;;;;;5132487;27;20014;-65
2021/12/14 19:09:31;;;;;;;;;;;22.70;54.60;;;;;;5129110;27;20497;-64
2021/12/14 19:12:05;;;;;;;;;;;22.70;54.50;;;;;;5134526;27;19916;-66
2021/12/14 19:14:32;;;;;;;;;;;22.70;54.50;;;;;;5133382;27;19915;-65
2021/12/14 19:17:00;;;;;;;;;;;22.70;54.50;;;;;;5134341;27;19915;-65
2021/12/14 19:19:28;;;;;;;;;;;22.70;54.50;;;;;;5133063;27;20402;-65
2021/12/14 19:22:04;;;;;;;;;;;22.70;54.50;;;;;;5134945;27;20395;-64
2021/12/14 19:24:29;;;;;;;;;;;22.70;54.50;;;;;;5134996;27;19919;-64
2021/12/14 19:26:57;;;;;;;;;;;22.70;54.40;;;;;;5134840;27;19908;-64
2021/12/14 19:29:34;;;;;;;;;;;22.70;54.40;;;;;;5135265;27;19907;-66
2021/12/14 19:32:04;;;;;;;;;;;22.70;54.40;;;;;;5134107;27;19907;-65
2021/12/14 19:34:32;;;;;;;;;;;22.70;54.40;;;;;;5134621;27;19908;-64
2021/12/14 19:36:58;;;;;;;;;;;22.70;54.40;;;;;;5134587;27;19911;-65
2021/12/14 19:39:25;;;;;;;;;;;22.60;54.30;;;;;;5129336;27;20002;-63
2021/12/14 19:41:59;;;;;;;;;;;22.70;54.30;;;;;;5132217;27;19919;-65
2021/12/14 19:44:24;;;;;;;;;;;22.60;54.30;;;;;;5132034;27;20360;-64
2021/12/14 19:47:01;;;;;;;;;;;22.70;54.30;;;;;;5131227;27;19919;-65
2021/12/14 19:49:28;;;;;;;;;;;22.60;54.20;;;;;;5131456;27;19912;-65
2021/12/14 19:51:55;;;;;;;;;;;22.70;54.20;;;;;;5129540;27;20375;-65
2021/12/14 19:54:32;;;;;;;;;;;22.70;54.20;;;;;;5130978;27;19971;-68
2021/12/14 19:57:01;;;;;;;;;;;22.70;54.80;;;;;;5132596;27;19997;-68
2021/12/14 19:59:31;;;;;;;;;;;22.70;54.20;;;;;;5133604;27;19907;-68
2021/12/14 20:01:58;;;;;;;;;;;22.70;54.10;;;;;;5133840;27;19958;-67
2021/12/14 20:04:25;;;;;;;;;;;22.70;54.10;;;;;;5134025;27;19956;-67
2021/12/14 20:06:57;;;;;;;;;;;22.70;54.10;;;;;;5134132;27;19907;-68
2021/12/14 20:09:29;;;;;;;;;;;22.70;54.10;;;;;;5133689;27;19911;-67
2021/12/14 20:11:57;;;;;;;;;;;22.70;54.10;;;;;;5134002;27;20427;-67
2021/12/14 20:14:26;;;;;;;;;;;22.70;54.10;;;;;;5133458;27;19907;-68
2021/12/14 20:16:53;;;;;;;;;;;22.70;54.10;;;;;;5133732;27;19915;-68
2021/12/14 20:19:20;;;;;;;;;;;22.70;54.10;;;;;;5133782;27;19911;-67
2021/12/14 20:21:49;;;;;;;;;;;22.70;54.10;;;;;;5133721;27;19924;-67
2021/12/14 20:24:16;;;;;;;;;;;22.70;54.10;;;;;;5133593;27;19912;-68
2021/12/14 20:26:44;;;;;;;;;;;22.70;54.10;;;;;;5133479;27;19908;-68
2021/12/14 20:29:09;;;;;;;;;;;22.70;54.10;;;;;;5133034;27;19908;-68
2021/12/14 20:31:37;;;;;;;;;;;22.70;54.00;;;;;;5133576;27;20320;-69
2021/12/14 20:34:11;;;;;;;;;;;22.70;54.00;;;;;;5133386;27;19908;-68
2021/12/14 20:36:38;;;;;;;;;;;22.70;54.00;;;;;;5133335;27;19916;-67
2021/12/14 20:39:18;;;;;;;;;;;22.60;53.90;;;;;;5132072;27;19976;-68
2021/12/14 20:41:46;;;;;;;;;;;22.70;54.00;;;;;;5133274;27;19926;-69
2021/12/14 20:44:22;;;;;;;;;;;22.70;53.90;;;;;;5132827;27;19907;-68
2021/12/14 20:46:53;;;;;;;;;;;22.70;53.90;;;;;;5133244;27;20375;-67
2021/12/14 20:49:21;;;;;;;;;;;22.70;53.90;;;;;;5133374;27;19915;-68
2021/12/14 20:51:48;;;;;;;;;;;22.70;53.90;;;;;;5133207;27;19982;-68
2021/12/14 20:54:13;;;;;;;;;;;22.70;53.80;;;;;;5133187;27;20340;-68
2021/12/14 20:56:40;;;;;;;;;;;22.70;53.80;;;;;;5133254;27;20385;-69
2021/12/14 20:59:12;;;;;;;;;;;22.70;53.80;;;;;;5132554;27;19907;-69
2021/12/14 21:01:43;;;;;;;;;;;22.70;53.80;;;;;;5132905;27;19936;-68
2021/12/14 21:04:13;;;;;;;;;;;22.70;53.80;;;;;;5133064;27;19915;-69
2021/12/14 21:06:49;;;;;;;;;;;22.70;53.70;;;;;;5132746;27;20364;-67
2021/12/14 21:09:16;;;;;;;;;;;22.70;53.70;;;;;;5132817;27;19914;-67
2021/12/14 21:11:47;;;;;;;;;;;22.70;53.70;;;;;;5131149;28;20376;-69
2021/12/14 21:14:15;;;;;;;;;;;22.70;53.70;;;;;;5133084;28;20002;-67
2021/12/14 21:16:45;;;;;;;;;;;22.70;53.70;;;;;;5133338;28;19911;-67
2021/12/14 21:19:20;;;;;;;;;;;22.60;53.70;;;;;;5133508;28;19911;-67
2021/12/14 21:21:45;;;;;;;;;;;22.60;53.60;;;;;;5135027;28;19920;-68
2021/12/14 21:24:13;;;;;;;;;;;22.60;53.60;;;;;;5133202;28;19991;-68
2021/12/14 21:26:39;;;;;;;;;;;22.60;53.60;;;;;;5132971;28;20408;-68
2021/12/14 21:29:04;;;;;;;;;;;22.60;53.60;;;;;;5132834;28;19912;-69
2021/12/14 21:31:30;;;;;;;;;;;22.60;53.50;;;;;;5132923;28;19994;-67
2021/12/14 21:33:56;;;;;;;;;;;22.70;53.60;;;;;;5132753;28;19935;-68
2021/12/14 21:36:21;;;;;;;;;;;22.70;53.60;;;;;;5132672;28;20532;-66
2021/12/14 21:39:05;;;;;;;;;;;22.70;53.60;;;;;;5132624;28;19912;-68
2021/12/14 21:41:33;;;;;;;;;;;22.70;53.60;;;;;;5132176;28;19919;-67
2021/12/14 21:44:46;;;;;;;;;;;22.70;53.60;;;;;;5132609;28;19915;-68
2021/12/14 21:47:16;;;;;;;;;;;22.60;53.50;;;;;;5132518;28;19960;-67
2021/12/14 21:50:07;;;;;;;;;;;22.60;53.50;;;;;;5132511;28;19911;-68
2021/12/14 21:52:33;;;;;;;;;;;22.60;53.50;;;;;;5129247;28;20372;-68
2021/12/14 21:55:03;;;;;;;;;;;22.60;53.40;;;;;;5131277;28;19919;-67
2021/12/14 21:57:36;;;;;;;;;;;22.60;53.40;;;;;;5131967;28;20332;-68
2021/12/14 22:00:08;;;;;;;;;;;22.60;54.10;;;;;;5132309;28;19911;-68
2021/12/14 22:02:33;;;;;;;;;;;22.60;53.40;;;;;;5132443;28;19919;-68
2021/12/14 22:04:59;;;;;;;;;;;22.60;53.40;;;;;;5132455;28;19953;-68
2021/12/14 22:07:25;;;;;;;;;;;22.60;53.40;;;;;;5132220;28;19960;-66
2021/12/14 22:09:51;;;;;;;;;;;22.60;53.40;;;;;;5131758;28;19919;-68
2021/12/14 22:12:24;;;;;;;;;;;22.60;53.40;;;;;;5132365;28;19914;-70
2021/12/14 22:14:57;;;;;;;;;;;22.60;53.30;;;;;;5132563;28;20022;-69
2021/12/14 22:17:23;;;;;;;;;;;22.60;53.30;;;;;;5132589;27;19911;-69
2021/12/14 22:19:49;;;;;;;;;;;22.60;53.30;;;;;;5136044;27;19931;-67
2021/12/14 22:22:15;;;;;;;;;;;22.50;53.30;;;;;;5135976;27;20377;-67
2021/12/14 22:24:42;;;;;;;;;;;22.50;53.30;;;;;;5135414;27;20261;-69
2021/12/14 22:27:08;;;;;;;;;;;22.50;53.20;;;;;;5135838;27;19952;-69
2021/12/14 22:29:34;;;;;;;;;;;22.50;53.30;;;;;;5135809;27;19916;-70
2021/12/14 22:31:59;;;;;;;;;;;22.50;53.20;;;;;;5135958;27;19915;-69
2021/12/14 22:34:25;;;;;;;;;;;22.50;53.20;;;;;;5135729;27;19918;-67
2021/12/14 22:36:50;;;;;;;;;;;22.50;53.20;;;;;;5135741;27;19907;-69
2021/12/14 22:39:17;;;;;;;;;;;22.50;53.20;;;;;;5135158;27;19907;-69
2021/12/14 22:42:11;;;;;;;;;;;22.50;53.20;;;;;;5135481;27;20010;-69
2021/12/14 22:44:37;;;;;;;;;;;22.50;53.20;;;;;;5135513;27;19954;-69
2021/12/14 22:47:07;;;;;;;;;;;22.50;53.20;;;;;;5135513;27;19907;-68
2021/12/14 22:49:33;;;;;;;;;;;22.50;53.20;;;;;;5135451;27;20249;-69
2021/12/14 22:52:01;;;;;;;;;;;22.50;53.20;;;;;;5135436;27;19945;-69
2021/12/14 22:54:27;;;;;;;;;;;22.50;53.20;;;;;;5134956;27;19914;-68
2021/12/14 22:56:53;;;;;;;;;;;22.50;53.20;;;;;;5135503;27;19908;-67
2021/12/14 22:59:18;;;;;;;;;;;22.50;53.20;;;;;;5135371;27;19907;-68
2021/12/14 23:01:45;;;;;;;;;;;22.40;53.10;;;;;;5135188;27;19996;-67
2021/12/14 23:04:17;;;;;;;;;;;22.50;53.20;;;;;;5135284;27;19912;-68
2021/12/14 23:06:43;;;;;;;;;;;22.40;53.10;;;;;;5135099;27;19908;-68
2021/12/14 23:09:10;;;;;;;;;;;22.40;53.10;;;;;;5134793;27;19914;-67
2021/12/14 23:11:36;;;;;;;;;;;22.40;53.10;;;;;;5135055;27;19920;-68
2021/12/14 23:14:12;;;;;;;;;;;22.40;53.10;;;;;;5135098;27;19918;-69
2021/12/14 23:16:42;;;;;;;;;;;22.40;53.10;;;;;;5135137;27;19911;-68
2021/12/14 23:19:29;;;;;;;;;;;22.40;53.10;;;;;;5135397;27;20015;-69
2021/12/14 23:21:53;;;;;;;;;;;22.40;53.10;;;;;;5134779;27;19920;-69
2021/12/14 23:24:19;;;;;;;;;;;22.40;53.10;;;;;;5134447;27;19914;-69
2021/12/14 23:26:47;;;;;;;;;;;22.40;53.10;;;;;;5134804;27;19911;-69
2021/12/14 23:29:13;;;;;;;;;;;22.40;53.10;;;;;;5134769;27;19933;-68
2021/12/14 23:31:38;;;;;;;;;;;22.40;53.10;;;;;;5134565;27;19914;-69
2021/12/14 23:34:04;;;;;;;;;;;22.30;53.00;;;;;;5134566;27;19911;-67
2021/12/14 23:36:29;;;;;;;;;;;22.40;53.00;;;;;;5134622;27;20382;-68
2021/12/14 23:38:55;;;;;;;;;;;22.40;53.00;;;;;;5133990;27;20390;-67
2021/12/14 23:41:22;;;;;;;;;;;22.40;53.00;;;;;;5134390;27;19919;-68
2021/12/14 23:43:50;;;;;;;;;;;22.40;53.00;;;;;;5134427;27;19918;-67
2021/12/14 23:48:45;;;;;;;;;;;22.30;52.90;;;;;;5134570;27;19911;-68
2021/12/14 23:51:11;;;;;;;;;;;22.40;53.00;;;;;;5133732;27;19911;-67